Time;durP1;ratioP1;P1;durP2;ratioP2;P2;SDS_P1;SDS_P2;PMS_P1;PMS_P2;Temp;Humidity;BMP_temperature;BMP_pressure;BME280_temperature;BME280_humidity;BME280_pressure;Samples;Min_cycle;Max_cycle;Signal;HPM_P1;HPM_P2
2021/09/26 00:04:29;;;;;;;48.90;33.40;;;;;;;14.70;79.42;99059.85;236179;1197;23046;-72
2021/09/26 00:09:34;;;;;;;49.30;32.70;;;;;;;14.66;79.48;99060.94;236216;1197;24030;-72
2021/09/26 00:14:38;;;;;;;45.40;31.20;;;;;;;14.62;79.44;99062.64;236278;1198;24078;-73
2021/09/26 00:19:44;;;;;;;55.50;36.80;;;;;;;14.60;79.67;99059.92;236292;1197;22447;-74
2021/09/26 00:24:47;;;;;;;54.00;36.60;;;;;;;14.61;79.73;99046.80;236391;1197;24078;-72
2021/09/26 00:29:59;;;;;;;50.40;32.50;;;;;;;14.56;79.65;99044.05;236327;1197;24089;-73
2021/09/26 00:35:21;;;;;;;50.70;34.70;;;;;;;14.49;79.84;99041.91;236136;1196;25276;-72
2021/09/26 00:40:23;;;;;;;50.00;34.00;;;;;;;14.43;80.01;99041.25;236136;1190;22468;-72
2021/09/26 00:45:26;;;;;;;51.10;33.70;;;;;;;14.36;80.04;99040.94;235890;1197;25611;-73
2021/09/26 00:50:29;;;;;;;46.00;31.70;;;;;;;14.25;79.90;99037.30;236009;1197;23101;-73
2021/09/26 00:55:32;;;;;;;47.90;31.40;;;;;;;14.14;79.70;99040.00;235949;1197;26166;-72
2021/09/26 01:00:50;;;;;;;48.50;33.10;;;;;;;14.03;79.77;99034.98;236176;1193;24996;-72
2021/09/26 01:06:35;;;;;;;48.50;34.90;;;;;;;13.96;80.11;99037.94;236184;1197;24078;-73
2021/09/26 01:12:07;;;;;;;46.00;31.50;;;;;;;13.91;80.43;99047.75;236019;1197;24040;-74
2021/09/26 01:17:27;;;;;;;47.20;30.80;;;;;;;13.86;80.61;99048.49;236749;1189;24049;-74
2021/09/26 01:22:51;;;;;;;46.90;32.90;;;;;;;13.82;80.67;99049.38;236441;1197;22519;-74
2021/09/26 01:28:25;;;;;;;43.80;29.50;;;;;;;13.77;80.80;99048.63;236555;1197;24017;-73
2021/09/26 01:33:34;;;;;;;41.20;27.80;;;;;;;13.69;80.56;99049.99;236270;1190;25160;-71
2021/09/26 01:38:45;;;;;;;39.00;28.90;;;;;;;13.60;80.51;99046.85;236260;1189;24216;-73
2021/09/26 01:43:50;;;;;;;40.60;31.30;;;;;;;13.53;80.90;99046.40;236181;1190;22461;-74
2021/09/26 01:49:03;;;;;;;41.80;28.50;;;;;;;13.51;81.41;99047.79;236217;1190;22453;-73
2021/09/26 01:54:12;;;;;;;40.50;27.40;;;;;;;13.49;81.57;99050.67;236109;1197;22436;-72
2021/09/26 01:59:16;;;;;;;38.90;25.50;;;;;;;13.48;81.75;99050.75;236013;1193;22625;-74
2021/09/26 02:04:20;;;;;;;39.10;29.30;;;;;;;13.46;81.72;99055.14;236174;1197;22435;-72
2021/09/26 02:09:24;;;;;;;38.80;27.20;;;;;;;13.43;81.73;99053.77;236091;1198;24021;-73
2021/09/26 02:14:28;;;;;;;38.40;27.10;;;;;;;13.37;81.88;99055.80;236151;1191;24984;-73
2021/09/26 02:19:31;;;;;;;33.60;24.70;;;;;;;13.34;82.01;99058.11;236046;1198;25211;-72
2021/09/26 02:24:37;;;;;;;34.30;24.00;;;;;;;13.28;81.91;99057.72;236054;1197;25330;-74
2021/09/26 02:29:39;;;;;;;37.10;26.30;;;;;;;13.24;81.89;99065.99;236295;1197;24817;-73
2021/09/26 02:34:42;;;;;;;38.40;26.40;;;;;;;13.22;82.38;99071.30;236525;1197;24051;-72
2021/09/26 02:39:45;;;;;;;35.40;25.90;;;;;;;13.21;82.59;99075.77;236390;1190;22495;-73
2021/09/26 02:45:04;;;;;;;33.90;24.00;;;;;;;13.22;82.76;99072.38;236220;1190;22484;-72
2021/09/26 02:50:21;;;;;;;37.30;25.60;;;;;;;13.23;82.82;99071.89;236041;1197;24145;-72
2021/09/26 02:55:41;;;;;;;33.90;26.20;;;;;;;13.22;82.77;99081.38;236448;1193;25011;-74
2021/09/26 03:00:48;;;;;;;33.70;24.50;;;;;;;13.15;82.49;99075.90;236269;1190;24023;-74
2021/09/26 03:05:54;;;;;;;34.00;23.80;;;;;;;13.01;81.90;99075.45;236340;1183;23082;-74
2021/09/26 03:11:06;;;;;;;36.80;27.10;;;;;;;12.83;81.76;99071.25;236386;1190;24583;-71
2021/09/26 03:16:27;;;;;;;34.20;24.30;;;;;;;12.76;82.43;99075.52;236296;1196;22451;-71
2021/09/26 03:21:49;;;;;;;34.10;24.70;;;;;;;12.75;82.81;99074.61;236269;1192;22441;-74
2021/09/26 03:26:52;;;;;;;34.20;24.20;;;;;;;12.76;83.05;99075.95;236252;1197;22464;-74
2021/09/26 03:31:54;;;;;;;33.60;25.30;;;;;;;12.71;82.59;99084.05;236074;1197;24043;-73
2021/09/26 03:37:08;;;;;;;33.10;24.30;;;;;;;12.56;82.38;99086.34;236149;1197;24044;-74
2021/09/26 03:42:11;;;;;;;32.30;22.60;;;;;;;12.53;82.75;99091.83;236152;1197;24091;-74
2021/09/26 03:47:14;;;;;;;33.80;23.80;;;;;;;12.47;82.55;99088.51;236218;1197;23211;-74
2021/09/26 03:52:16;;;;;;;32.80;24.10;;;;;;;12.43;82.74;99081.05;236060;1197;24186;-72
2021/09/26 03:57:20;;;;;;;34.30;24.20;;;;;;;12.35;82.81;99087.30;236204;1197;24175;-74
2021/09/26 04:02:23;;;;;;;34.40;23.50;;;;;;;12.31;83.06;99091.39;236248;1197;22514;-72
2021/09/26 04:07:26;;;;;;;28.40;21.60;;;;;;;12.24;82.82;99089.56;236260;1189;23982;-72
2021/09/26 04:12:32;;;;;;;33.70;23.30;;;;;;;12.21;83.09;99090.39;236309;1190;22523;-74
2021/09/26 04:17:36;;;;;;;33.10;24.70;;;;;;;12.22;83.24;99090.55;236059;1197;22421;-74
2021/09/26 04:22:38;;;;;;;35.20;25.80;;;;;;;12.15;82.82;99088.77;236126;1197;24946;-74
2021/09/26 04:27:41;;;;;;;32.80;22.50;;;;;;;12.06;82.91;99089.27;236246;1197;23999;-72
2021/09/26 04:32:45;;;;;;;30.30;21.00;;;;;;;12.03;83.03;99093.52;236278;1197;25310;-73
2021/09/26 04:37:47;;;;;;;29.50;21.10;;;;;;;11.95;82.75;99097.42;236209;1197;24009;-72
2021/09/26 04:42:51;;;;;;;28.40;22.20;;;;;;;11.90;83.13;99096.92;236136;1197;24079;-72
2021/09/26 04:47:53;;;;;;;32.50;23.30;;;;;;;11.79;82.52;99096.86;236173;1197;24051;-72
2021/09/26 04:52:56;;;;;;;33.90;23.80;;;;;;;11.57;82.36;99102.27;236004;1192;22558;-73
2021/09/26 04:57:59;;;;;;;35.40;24.30;;;;;;;11.47;82.74;99099.97;236326;1197;22906;-73
2021/09/26 05:03:02;;;;;;;31.50;22.90;;;;;;;11.51;83.17;99102.77;236969;1190;22423;-72
2021/09/26 05:08:05;;;;;;;34.50;25.20;;;;;;;11.56;83.25;99111.30;236555;1190;22423;-74
2021/09/26 05:13:07;;;;;;;35.10;25.00;;;;;;;11.57;83.40;99110.11;236163;1197;24126;-74
2021/09/26 05:18:10;;;;;;;32.60;22.30;;;;;;;11.62;83.75;99108.77;236264;1197;25071;-73
2021/09/26 05:23:13;;;;;;;29.80;21.60;;;;;;;11.74;84.11;99103.15;236290;1197;24067;-74
2021/09/26 05:28:15;;;;;;;32.60;23.40;;;;;;;11.87;83.93;99110.98;236463;1197;24074;-72
2021/09/26 05:33:18;;;;;;;31.10;23.70;;;;;;;11.94;83.79;99118.33;236327;1183;24118;-72
2021/09/26 05:38:21;;;;;;;32.10;23.10;;;;;;;11.97;83.68;99119.35;236173;1183;24146;-74
2021/09/26 05:43:24;;;;;;;31.40;23.40;;;;;;;12.06;83.74;99122.63;236430;1189;25144;-72
2021/09/26 05:48:26;;;;;;;36.30;27.20;;;;;;;12.17;83.86;99120.42;236680;1174;25259;-72
2021/09/26 05:53:43;;;;;;;32.20;22.50;;;;;;;12.36;84.33;99114.46;236641;1197;22986;-73
2021/09/26 05:59:08;;;;;;;29.90;23.20;;;;;;;12.57;84.61;99111.04;236833;1196;24063;-72
2021/09/26 06:04:11;;;;;;;31.00;23.80;;;;;;;12.76;84.64;99111.53;236732;1197;22468;-74
2021/09/26 06:09:13;;;;;;;29.30;20.60;;;;;;;12.99;84.96;99118.84;236696;1197;22500;-75
2021/09/26 06:14:16;;;;;;;27.10;20.30;;;;;;;13.20;84.82;99120.50;236252;1197;23181;-74
2021/09/26 06:19:18;;;;;;;27.30;22.10;;;;;;;13.43;84.93;99128.45;236593;1191;22928;-75
2021/09/26 06:24:21;;;;;;;30.30;22.60;;;;;;;13.62;84.73;99129.13;236637;1189;24050;-73
2021/09/26 06:29:24;;;;;;;26.70;20.70;;;;;;;13.81;84.74;99128.84;236761;1197;25154;-75
2021/09/26 06:34:26;;;;;;;27.80;20.20;;;;;;;14.03;84.68;99127.27;236717;1192;24178;-75
2021/09/26 06:39:29;;;;;;;29.80;23.70;;;;;;;14.24;84.46;99131.27;236416;1195;24042;-75
2021/09/26 06:44:32;;;;;;;29.10;24.10;;;;;;;14.48;84.74;99138.55;236358;1192;24021;-74
2021/09/26 06:49:35;;;;;;;28.10;22.10;;;;;;;14.76;84.96;99136.63;236351;1192;24054;-75
2021/09/26 06:54:37;;;;;;;30.20;24.30;;;;;;;15.06;84.88;99137.92;236659;1186;24515;-73
2021/09/26 06:59:49;;;;;;;31.70;25.70;;;;;;;15.38;84.60;99137.48;236273;1190;24073;-75
2021/09/26 07:05:11;;;;;;;31.90;24.70;;;;;;;15.69;84.35;99148.52;236453;1197;24060;-74
2021/09/26 07:10:14;;;;;;;31.00;23.20;;;;;;;15.96;84.18;99155.20;236274;1198;25162;-74
2021/09/26 07:15:17;;;;;;;28.40;21.20;;;;;;;16.19;83.77;99154.50;236477;1198;24041;-74
2021/09/26 07:20:21;;;;;;;25.50;19.90;;;;;;;16.43;83.44;99160.88;236450;1197;22552;-74
2021/09/26 07:25:24;;;;;;;28.40;22.10;;;;;;;16.65;83.12;99160.17;236784;1197;24054;-76
2021/09/26 07:30:27;;;;;;;29.30;22.30;;;;;;;16.87;82.72;99163.52;236489;1197;22459;-74
2021/09/26 07:35:29;;;;;;;26.20;20.50;;;;;;;17.03;82.28;99164.52;236505;1190;22880;-74
2021/09/26 07:40:33;;;;;;;28.40;22.40;;;;;;;17.20;81.71;99170.27;236589;1191;25014;-74
2021/09/26 07:45:37;;;;;;;29.20;23.30;;;;;;;17.36;81.24;99171.44;237048;1197;25227;-74
2021/09/26 07:50:41;;;;;;;26.20;22.10;;;;;;;17.54;81.11;99173.35;236517;1198;22452;-73
2021/09/26 07:55:55;;;;;;;27.10;21.70;;;;;;;17.74;80.76;99173.46;236808;1198;23685;-75
2021/09/26 08:01:11;;;;;;;26.20;21.50;;;;;;;17.96;80.08;99173.78;236855;1176;24078;-74
2021/09/26 08:06:16;;;;;;;27.90;22.80;;;;;;;18.15;79.69;99171.66;236995;1197;22433;-74
2021/09/26 08:11:19;;;;;;;24.80;21.00;;;;;;;18.33;79.33;99168.54;236906;1192;22787;-74
2021/09/26 08:16:23;;;;;;;23.60;18.90;;;;;;;18.50;78.88;99170.94;236966;1197;23657;-74
2021/09/26 08:21:25;;;;;;;23.50;19.20;;;;;;;18.68;78.43;99175.60;236784;1197;22484;-75
2021/09/26 08:26:28;;;;;;;25.40;19.60;;;;;;;18.84;77.97;99179.91;236454;1198;24113;-74
2021/09/26 08:31:31;;;;;;;21.30;17.60;;;;;;;19.02;77.87;99178.92;236706;1190;22462;-74
2021/09/26 08:36:34;;;;;;;22.30;18.50;;;;;;;19.18;77.35;99181.12;237057;1197;22456;-74
2021/09/26 08:41:52;;;;;;;21.80;17.90;;;;;;;19.39;77.22;99178.48;237152;1198;25834;-75
2021/09/26 08:46:56;;;;;;;19.20;15.00;;;;;;;19.61;76.81;99178.02;236864;1197;22422;-75
2021/09/26 08:52:02;;;;;;;15.90;13.50;;;;;;;19.82;76.09;99186.95;236585;1197;25055;-74
2021/09/26 08:57:05;;;;;;;13.90;12.00;;;;;;;20.05;75.65;99185.56;236557;1198;22583;-75
2021/09/26 09:02:07;;;;;;;11.30;8.90;;;;;;;20.28;74.91;99195.50;236606;1198;25186;-74
2021/09/26 09:07:12;;;;;;;9.70;8.70;;;;;;;20.46;74.07;99190.80;236406;1197;22895;-74
2021/09/26 09:12:15;;;;;;;11.30;8.00;;;;;;;20.61;73.32;99183.48;236502;1198;24119;-75
2021/09/26 09:17:41;;;;;;;11.00;8.80;;;;;;;20.74;72.04;99178.66;236269;1198;25181;-72
2021/09/26 09:22:47;;;;;;;10.90;8.80;;;;;;;20.82;71.47;99178.55;236330;1198;22817;-75
2021/09/26 09:27:49;;;;;;;10.80;9.60;;;;;;;20.94;71.13;99173.83;236452;1197;23670;-73
2021/09/26 09:32:55;;;;;;;10.20;8.90;;;;;;;21.07;70.43;99174.78;236445;1197;22473;-75
2021/09/26 09:37:57;;;;;;;17.10;15.30;;;;;;;21.16;69.69;99174.17;236246;1197;24029;-73
2021/09/26 09:43:00;;;;;;;10.20;9.00;;;;;;;21.29;69.51;99172.09;236688;1192;22421;-75
2021/09/26 09:48:08;;;;;;;9.00;8.10;;;;;;;21.43;69.11;99177.42;236478;1192;24226;-75
2021/09/26 09:53:29;;;;;;;9.70;8.20;;;;;;;21.59;68.46;99180.09;236582;1198;22425;-73
2021/09/26 09:58:42;;;;;;;8.50;7.70;;;;;;;21.67;67.32;99180.44;236469;1197;24216;-73
2021/09/26 10:03:51;;;;;;;7.60;6.80;;;;;;;21.73;66.93;99168.84;236612;1183;24090;-73
2021/09/26 10:08:57;;;;;;;7.90;6.90;;;;;;;21.77;66.20;99171.24;236534;1198;23606;-73
2021/09/26 10:14:01;;;;;;;8.30;7.40;;;;;;;21.79;66.12;99172.48;236307;1190;24186;-73
2021/09/26 10:19:05;;;;;;;7.60;6.80;;;;;;;21.81;65.63;99169.54;236488;1197;22448;-74
2021/09/26 10:24:14;;;;;;;8.40;6.90;;;;;;;21.78;64.76;99163.41;236516;1197;24118;-73
2021/09/26 10:29:20;;;;;;;9.20;7.90;;;;;;;21.83;65.52;99161.71;236391;1197;22985;-75
2021/09/26 10:34:24;;;;;;;9.50;8.00;;;;;;;21.95;65.08;99163.33;236167;1198;23236;-75
2021/09/26 10:39:27;;;;;;;8.20;6.70;;;;;;;22.04;64.62;99159.39;236452;1197;24071;-74
2021/09/26 10:44:31;;;;;;;8.60;7.30;;;;;;;22.04;64.48;99161.83;236316;1197;22950;-75
2021/09/26 10:49:39;;;;;;;8.20;7.40;;;;;;;22.08;64.24;99159.88;236630;1197;24066;-74
2021/09/26 10:54:41;;;;;;;10.30;7.60;;;;;;;22.22;64.30;99160.71;236453;1198;22415;-75
2021/09/26 10:59:57;;;;;;;8.20;7.10;;;;;;;22.35;63.77;99150.80;236677;1196;24184;-75
2021/09/26 11:05:28;;;;;;;7.30;6.60;;;;;;;22.44;63.27;99144.20;236595;1197;22569;-75
2021/09/26 11:10:37;;;;;;;6.90;6.20;;;;;;;22.52;62.61;99145.70;236731;1197;22455;-75
2021/09/26 11:16:03;;;;;;;7.80;7.00;;;;;;;22.56;62.27;99143.04;236706;1198;22451;-76
2021/09/26 11:21:05;;;;;;;7.40;6.50;;;;;;;22.65;62.26;99140.80;236632;1198;25198;-75
2021/09/26 11:26:08;;;;;;;8.00;6.90;;;;;;;22.83;62.16;99135.13;236794;1192;24056;-75
2021/09/26 11:31:42;;;;;;;7.90;7.10;;;;;;;23.01;61.74;99130.92;236829;1196;22450;-74
2021/09/26 11:36:52;;;;;;;8.90;8.10;;;;;;;23.13;61.18;99130.67;236278;1190;24121;-74
2021/09/26 11:41:55;;;;;;;8.90;8.10;;;;;;;23.23;60.72;99125.86;236636;1197;24109;-75
2021/09/26 11:46:58;;;;;;;8.40;7.50;;;;;;;23.37;60.42;99122.80;236502;1197;24110;-75
2021/09/26 11:52:04;;;;;;;13.20;11.50;;;;;;;23.54;60.15;99113.16;236563;1190;22559;-74
2021/09/26 11:57:10;;;;;;;9.20;8.30;;;;;;;23.66;59.55;99110.36;236807;1194;22979;-75
2021/09/26 12:02:15;;;;;;;9.30;8.40;;;;;;;23.75;59.14;99113.63;236786;1198;22533;-75
2021/09/26 12:07:18;;;;;;;9.70;8.70;;;;;;;23.78;58.57;99116.16;236517;1197;24027;-73
2021/09/26 12:12:25;;;;;;;9.60;8.00;;;;;;;23.82;58.58;99109.34;236604;1197;24163;-74
2021/09/26 12:17:31;;;;;;;9.50;8.60;;;;;;;23.83;57.77;99100.21;236513;1197;22617;-74
2021/09/26 12:22:35;;;;;;;9.70;8.80;;;;;;;23.83;57.94;99099.74;236963;1198;22609;-74
2021/09/26 12:27:38;;;;;;;10.00;8.40;;;;;;;23.84;57.81;99091.86;236396;1197;24086;-72
2021/09/26 12:32:57;;;;;;;10.10;9.10;;;;;;;23.93;58.08;99084.19;236543;1198;24078;-74
2021/09/26 12:38:04;;;;;;;9.30;8.40;;;;;;;24.07;57.58;99080.77;236417;1197;22839;-73
2021/09/26 12:43:10;;;;;;;9.00;8.00;;;;;;;24.20;57.49;99084.77;236842;1197;22524;-74
2021/09/26 12:48:16;;;;;;;8.80;8.00;;;;;;;24.36;57.09;99089.58;236503;1184;24099;-75
2021/09/26 12:53:22;;;;;;;9.20;8.30;;;;;;;24.58;57.15;99088.25;237133;1190;24105;-75
2021/09/26 12:58:47;;;;;;;9.70;8.60;;;;;;;24.81;56.31;99083.98;236544;1198;22532;-74
2021/09/26 13:04:14;;;;;;;9.10;7.70;;;;;;;24.85;55.68;99080.96;236197;1183;22431;-73
2021/09/26 13:09:33;;;;;;;8.30;7.60;;;;;;;25.02;55.42;99076.89;236373;1177;24190;-75
2021/09/26 13:14:36;;;;;;;8.40;7.20;;;;;;;25.08;54.57;99074.11;236397;1198;22446;-73
2021/09/26 13:19:51;;;;;;;8.10;7.40;;;;;;;24.99;53.58;99072.63;236402;1190;24197;-75
2021/09/26 13:24:56;;;;;;;10.30;7.40;;;;;;;24.80;53.52;99069.87;236484;1197;23016;-75
2021/09/26 13:30:03;;;;;;;7.40;6.80;;;;;;;24.77;53.54;99071.72;236230;1196;24084;-72
2021/09/26 13:35:17;;;;;;;9.10;8.30;;;;;;;24.73;53.46;99063.79;236800;1197;23781;-74
2021/09/26 13:40:31;;;;;;;8.40;7.60;;;;;;;24.76;54.10;99055.04;236789;1197;24005;-74
2021/09/26 13:45:55;;;;;;;7.90;7.20;;;;;;;24.71;54.00;99053.90;236499;1190;22434;-74
2021/09/26 13:50:57;;;;;;;8.80;6.80;;;;;;;24.54;53.94;99050.64;236446;1190;24075;-74
2021/09/26 13:56:03;;;;;;;6.70;6.10;;;;;;;24.23;53.17;99046.65;236647;1197;22578;-74
2021/09/26 14:01:10;;;;;;;6.20;5.70;;;;;;;23.94;53.96;99045.75;236851;1198;22469;-74
2021/09/26 14:06:14;;;;;;;6.70;6.20;;;;;;;23.77;54.26;99039.17;236728;1190;22547;-73
2021/09/26 14:11:18;;;;;;;6.40;5.80;;;;;;;23.64;54.64;99035.10;236848;1197;25211;-72
2021/09/26 14:16:22;;;;;;;7.40;6.70;;;;;;;23.47;54.45;99030.64;236767;1198;25279;-73
2021/09/26 14:21:27;;;;;;;6.70;6.00;;;;;;;23.23;54.25;99024.67;236431;1197;25270;-72
2021/09/26 14:26:30;;;;;;;7.20;6.10;;;;;;;23.10;55.30;99024.98;236399;1193;22865;-72
2021/09/26 14:31:33;;;;;;;6.40;5.80;;;;;;;23.04;55.68;99021.63;236729;1190;22439;-74
2021/09/26 14:36:36;;;;;;;7.40;5.50;;;;;;;22.99;55.50;99012.64;236945;1190;22551;-74
2021/09/26 14:41:40;;;;;;;6.30;5.70;;;;;;;22.96;55.98;99009.63;236739;1198;22432;-73
2021/09/26 14:46:44;;;;;;;6.20;5.60;;;;;;;22.96;56.12;99011.66;236584;1198;22562;-75
2021/09/26 14:51:48;;;;;;;6.90;6.30;;;;;;;22.96;56.16;99008.45;236589;1197;22443;-73
2021/09/26 14:56:50;;;;;;;6.90;6.20;;;;;;;22.98;56.42;99009.66;236412;1197;22578;-72
2021/09/26 15:01:53;;;;;;;9.00;8.10;;;;;;;23.07;56.31;99007.61;236417;1197;24169;-74
2021/09/26 15:06:56;;;;;;;6.40;5.80;;;;;;;23.16;55.96;99009.66;237004;1184;24078;-75
2021/09/26 15:11:58;;;;;;;9.50;8.50;;;;;;;23.23;56.13;99007.50;237487;1176;24991;-74
2021/09/26 15:17:04;;;;;;;7.30;6.40;;;;;;;23.29;55.79;99011.48;236889;1197;22657;-74
2021/09/26 15:22:08;;;;;;;6.70;6.10;;;;;;;23.34;55.66;99010.39;236417;1198;25000;-74
2021/09/26 15:27:11;;;;;;;7.00;6.30;;;;;;;23.35;55.38;99004.63;236212;1190;22472;-73
2021/09/26 15:32:13;;;;;;;8.00;7.30;;;;;;;23.31;55.33;98993.09;236540;1197;24141;-74
2021/09/26 15:37:16;;;;;;;6.80;6.20;;;;;;;23.25;55.29;98992.23;236481;1197;22456;-74
2021/09/26 15:42:19;;;;;;;7.20;6.50;;;;;;;23.12;55.72;98984.85;236382;1183;24062;-74
2021/09/26 15:47:22;;;;;;;7.50;6.70;;;;;;;22.97;55.81;98987.40;236433;1190;22476;-73
2021/09/26 15:52:25;;;;;;;7.80;7.00;;;;;;;22.77;55.75;98988.89;236503;1190;25164;-75
2021/09/26 15:57:28;;;;;;;8.40;7.50;;;;;;;22.57;56.36;98981.84;236522;1183;24154;-74
2021/09/26 16:02:31;;;;;;;6.50;6.00;;;;;;;22.32;56.75;98981.30;236404;1197;22456;-74
2021/09/26 16:07:44;;;;;;;6.80;6.20;;;;;;;22.02;57.18;98980.73;236827;1197;24541;-72
2021/09/26 16:13:07;;;;;;;7.20;6.50;;;;;;;21.71;58.16;98988.52;236519;1190;25408;-72
2021/09/26 16:18:14;;;;;;;7.30;6.50;;;;;;;21.40;58.67;98987.77;236821;1190;24088;-74
2021/09/26 16:23:20;;;;;;;7.40;6.10;;;;;;;21.11;59.41;98983.77;236745;1197;23545;-75
2021/09/26 16:28:26;;;;;;;7.30;6.60;;;;;;;20.84;60.25;98982.12;237053;1182;24088;-72
2021/09/26 16:33:38;;;;;;;8.10;7.20;;;;;;;20.58;61.05;98980.21;236857;1197;23252;-71
2021/09/26 16:38:44;;;;;;;8.30;7.30;;;;;;;20.30;61.67;98980.90;236758;1198;22432;-73
2021/09/26 16:43:47;;;;;;;9.00;7.30;;;;;;;20.04;62.27;98978.32;236631;1197;22469;-75
2021/09/26 16:48:51;;;;;;;8.90;7.30;;;;;;;19.79;62.58;98978.17;236621;1190;25041;-74
2021/09/26 16:53:56;;;;;;;15.50;12.10;;;;;;;19.56;63.21;98974.77;236601;1193;25273;-75
2021/09/26 16:58:59;;;;;;;14.80;11.70;;;;;;;19.34;64.19;98978.80;236546;1197;22425;-75
2021/09/26 17:04:02;;;;;;;12.80;10.00;;;;;;;19.17;65.00;98977.80;236906;1197;23988;-76
2021/09/26 17:09:08;;;;;;;12.20;7.60;;;;;;;18.98;65.82;98983.13;236529;1197;25367;-74
2021/09/26 17:14:10;;;;;;;10.30;7.70;;;;;;;18.82;66.59;98984.39;236400;1190;24041;-75
2021/09/26 17:19:19;;;;;;;9.70;8.20;;;;;;;18.72;67.34;98983.55;236247;1198;22441;-74
2021/09/26 17:24:22;;;;;;;9.20;7.50;;;;;;;18.60;68.02;98985.73;236702;1191;22448;-75
2021/09/26 17:29:25;;;;;;;9.20;7.20;;;;;;;18.48;68.51;98985.73;236392;1190;24088;-75
2021/09/26 17:34:28;;;;;;;10.30;7.80;;;;;;;18.32;69.00;98992.95;236323;1190;24060;-76
2021/09/26 17:39:31;;;;;;;13.10;9.90;;;;;;;18.20;69.43;98999.26;236281;1198;24071;-74
2021/09/26 17:44:33;;;;;;;15.50;11.50;;;;;;;18.04;69.88;99006.36;236397;1197;22854;-74
2021/09/26 17:49:36;;;;;;;15.40;10.00;;;;;;;17.84;70.45;99003.08;236486;1198;24043;-74
2021/09/26 17:54:40;;;;;;;15.00;10.00;;;;;;;17.65;70.79;98997.35;236162;1198;25002;-75
2021/09/26 17:59:42;;;;;;;11.70;9.20;;;;;;;17.49;71.28;99008.96;236376;1198;22442;-75
2021/09/26 18:04:45;;;;;;;13.90;9.90;;;;;;;17.35;71.81;99018.56;236215;1190;24099;-75
2021/09/26 18:09:47;;;;;;;12.00;9.40;;;;;;;17.26;72.40;99015.34;236282;1197;24029;-73
2021/09/26 18:14:50;;;;;;;12.50;10.60;;;;;;;17.16;72.75;99017.05;236775;1190;24064;-72
2021/09/26 18:19:52;;;;;;;11.90;10.40;;;;;;;17.06;73.18;99021.77;236717;1191;24031;-74
2021/09/26 18:24:54;;;;;;;11.50;9.80;;;;;;;16.95;73.46;99023.57;236612;1198;22475;-74
2021/09/26 18:29:58;;;;;;;12.90;10.40;;;;;;;16.89;73.93;99025.66;236358;1197;22622;-74
2021/09/26 18:35:03;;;;;;;12.60;11.20;;;;;;;16.86;74.37;99025.88;236670;1197;22778;-75
2021/09/26 18:40:08;;;;;;;13.30;11.10;;;;;;;16.77;74.58;99022.17;236449;1190;22482;-72
2021/09/26 18:45:15;;;;;;;13.70;10.50;;;;;;;16.64;74.75;99018.86;236470;1197;22447;-73
2021/09/26 18:50:21;;;;;;;17.40;11.80;;;;;;;16.51;74.97;99024.50;236336;1183;22434;-74
2021/09/26 18:55:23;;;;;;;14.60;11.10;;;;;;;16.37;75.11;99034.33;236266;1192;23990;-75
2021/09/26 19:00:30;;;;;;;15.30;11.60;;;;;;;16.23;75.42;99032.98;236409;1197;24653;-74
2021/09/26 19:05:39;;;;;;;15.10;12.30;;;;;;;16.11;75.75;99019.56;236585;1197;22413;-74
2021/09/26 19:10:53;;;;;;;18.20;13.50;;;;;;;16.04;76.38;99016.33;236232;1197;22459;-74
2021/09/26 19:16:00;;;;;;;20.20;14.40;;;;;;;15.99;76.73;99023.83;236024;1183;22478;-74
2021/09/26 19:21:04;;;;;;;15.10;12.20;;;;;;;15.93;77.11;99025.01;236268;1197;22451;-75
2021/09/26 19:26:08;;;;;;;15.60;12.70;;;;;;;15.88;77.45;99024.81;236540;1190;22591;-74
2021/09/26 19:31:18;;;;;;;14.20;11.50;;;;;;;15.85;77.64;99023.57;236380;1197;24065;-73
2021/09/26 19:36:22;;;;;;;14.60;11.80;;;;;;;15.80;77.91;99021.50;236280;1197;25004;-74
2021/09/26 19:41:25;;;;;;;13.90;11.60;;;;;;;15.73;78.12;99027.19;236358;1197;22516;-75
2021/09/26 19:46:28;;;;;;;12.80;10.80;;;;;;;15.72;78.38;99031.83;236362;1190;24060;-74
2021/09/26 19:51:31;;;;;;;15.20;11.50;;;;;;;15.70;78.54;99022.48;236148;1197;25313;-74
2021/09/26 19:56:34;;;;;;;13.60;10.80;;;;;;;15.65;78.60;99025.02;236511;1197;22393;-73
2021/09/26 20:01:38;;;;;;;14.60;11.40;;;;;;;15.61;78.82;99022.59;236485;1196;22520;-74
2021/09/26 20:06:55;;;;;;;11.40;9.90;;;;;;;15.56;78.88;99019.79;236329;1197;23055;-75
2021/09/26 20:12:07;;;;;;;12.10;9.60;;;;;;;15.50;78.99;99024.11;236604;1198;24032;-74
2021/09/26 20:17:09;;;;;;;12.40;9.20;;;;;;;15.43;79.07;99023.70;236398;1197;26348;-74
2021/09/26 20:22:17;;;;;;;13.00;9.80;;;;;;;15.37;79.17;99022.73;236027;1192;22503;-74
2021/09/26 20:27:21;;;;;;;10.50;8.80;;;;;;;15.33;79.35;99021.30;236013;1190;22488;-73
2021/09/26 20:32:23;;;;;;;10.70;9.30;;;;;;;15.29;79.45;99021.23;236176;1198;22450;-72
2021/09/26 20:37:41;;;;;;;10.40;8.10;;;;;;;15.25;79.63;99024.33;236173;1197;22452;-72
2021/09/26 20:43:06;;;;;;;11.40;9.40;;;;;;;15.21;79.73;99030.95;236378;1190;24032;-74
2021/09/26 20:48:12;;;;;;;10.50;8.40;;;;;;;15.16;79.89;99030.98;236360;1190;22521;-72
2021/09/26 20:53:17;;;;;;;9.40;8.50;;;;;;;15.08;79.88;99034.05;236289;1191;25099;-74
2021/09/26 20:58:19;;;;;;;9.40;8.40;;;;;;;15.02;79.80;99034.54;236436;1198;24069;-74
2021/09/26 21:03:23;;;;;;;11.40;9.30;;;;;;;14.99;80.06;99036.84;236243;1197;25107;-74
2021/09/26 21:08:25;;;;;;;9.40;8.20;;;;;;;14.94;80.14;99037.14;236301;1190;22458;-73
2021/09/26 21:13:28;;;;;;;10.70;8.90;;;;;;;14.86;80.19;99024.81;236349;1193;22445;-72
2021/09/26 21:18:32;;;;;;;12.80;9.10;;;;;;;14.82;80.43;99033.71;236524;1196;22483;-71
2021/09/26 21:23:34;;;;;;;11.90;8.80;;;;;;;14.77;80.47;99032.55;236222;1197;25301;-72
2021/09/26 21:28:37;;;;;;;11.60;8.80;;;;;;;14.69;80.63;99027.42;236142;1197;25637;-74
2021/09/26 21:33:41;;;;;;;10.30;8.30;;;;;;;14.61;80.77;99025.34;236306;1189;22412;-71
2021/09/26 21:38:43;;;;;;;9.20;7.80;;;;;;;14.57;80.99;99019.02;236446;1197;22422;-72
2021/09/26 21:43:48;;;;;;;10.20;8.50;;;;;;;14.53;81.17;99014.27;236514;1197;22581;-73
2021/09/26 21:49:11;;;;;;;10.40;9.30;;;;;;;14.51;81.48;99010.36;236320;1197;22561;-75
2021/09/26 21:54:13;;;;;;;9.20;8.20;;;;;;;14.49;81.66;99012.27;236283;1197;22478;-74
2021/09/26 21:59:16;;;;;;;9.70;8.30;;;;;;;14.46;81.74;99003.70;236179;1197;22444;-74
2021/09/26 22:04:19;;;;;;;11.00;8.70;;;;;;;14.44;81.97;99004.09;236465;1190;22461;-74
2021/09/26 22:09:21;;;;;;;10.60;8.70;;;;;;;14.43;82.03;99003.19;236424;1197;24073;-74
2021/09/26 22:14:24;;;;;;;9.20;8.20;;;;;;;14.39;81.96;99004.14;236546;1198;26502;-73
2021/09/26 22:19:26;;;;;;;11.80;10.40;;;;;;;14.35;82.04;98994.83;236534;1190;24018;-73
2021/09/26 22:24:29;;;;;;;14.20;9.50;;;;;;;14.30;82.32;98989.83;236294;1191;22427;-73
2021/09/26 22:29:31;;;;;;;10.70;8.50;;;;;;;14.29;82.43;98985.17;236413;1183;24063;-73
2021/09/26 22:34:35;;;;;;;9.50;8.10;;;;;;;14.28;82.68;98981.74;236280;1197;24031;-74
2021/09/26 22:39:38;;;;;;;12.00;9.40;;;;;;;14.25;82.74;98973.02;236442;1189;22714;-73
2021/09/26 22:44:40;;;;;;;15.00;10.70;;;;;;;14.23;82.69;98972.87;236330;1198;22434;-72
2021/09/26 22:49:43;;;;;;;11.30;9.70;;;;;;;14.18;82.92;98973.73;236497;1197;24015;-71
2021/09/26 22:54:46;;;;;;;13.10;9.80;;;;;;;14.13;82.96;98968.58;236345;1174;24116;-74
2021/09/26 23:00:02;;;;;;;14.00;10.90;;;;;;;14.09;83.05;98961.95;236069;1198;24109;-73
2021/09/26 23:05:25;;;;;;;12.90;10.10;;;;;;;14.06;83.34;98957.27;236258;1174;22444;-72
2021/09/26 23:10:36;;;;;;;13.50;10.20;;;;;;;14.04;83.49;98966.58;236429;1197;23216;-72
2021/09/26 23:16:00;;;;;;;13.00;10.90;;;;;;;14.04;83.61;98969.17;236129;1197;22409;-73
2021/09/26 23:21:03;;;;;;;17.70;11.30;;;;;;;14.01;83.63;98967.32;236171;1197;24061;-71
2021/09/26 23:26:08;;;;;;;13.50;10.80;;;;;;;13.95;83.47;98971.77;236207;1192;24075;-74
2021/09/26 23:31:12;;;;;;;13.00;10.10;;;;;;;13.88;83.56;98973.05;236288;1190;24047;-74